Terminal Aerodrome Forecast
Issued by NWS

Home | Current Version | Previous Version | Text Only | Print | Product List | Glossary On
Versions: 1 2 3 4 5 6 7 8 9 10 11 12 13 14 15 16 17
000
FTUS43 KDLH 031700
TAFHYR
TAF
KHYR 031733Z 0318/0418 21012G20KT P6SM SKC
     FM032000 25010KT P6SM VCTS BKN060CB
      TEMPO 0320/0323 VRB25KT -TSRA BKN060CB
     FM040100 33006KT P6SM BKN080
     FM041600 01013G23KT P6SM SKC=

USA.gov is the U.S. government's official web portal to all federal, state and local government web resources and services.